Saratoga-Weather Station Historical Data
Daily Summary for February 13, 2019 Units:  English    Metric   Both
Daily Weekly Monthly Yearly Custom
  High: Low: Average:
Temperature: 49.6 °F 29.5 °F 39.2 °F
Dew Point: 33.6 °F 14.2 °F 24.7 °F
Humidity: 87% 29% 60%
Wind Speed: 13.0mph 0.0mph 0.6mph
Wind Gust: 13.0mph - -
Wind- - West
Pressure: 30.27 in 30.09 in -
Precipitation: 0.00 in    
Historical Graphs
 
 
Tabular Data for February 13, 2019
Time Temperature Dew Point Pressure Wind Wind Speed Wind Gust Humidity Rainfall Rate (Hourly) solar
00:04 39.7 °F 33.4 °F 30.09 in Calm   3.0 mph 78% 0.00 in meteobridge W/m2
00:09 39.7 °F 33.4 °F 30.09 in West 2.0 mph 7.0 mph 78% 0.00 in meteobridge W/m2
00:14 39.6 °F 32.5 °F 30.09 in Calm   3.0 mph 76% 0.00 in meteobridge W/m2
00:19 39.6 °F 33.6 °F 30.09 in Calm   2.0 mph 79% 0.00 in meteobridge W/m2
00:24 39.4 °F 33.4 °F 30.09 in Calm     79% 0.00 in meteobridge W/m2
00:29 39.2 °F 33.3 °F 30.09 in Calm   4.0 mph 79% 0.00 in meteobridge W/m2
00:34 39.0 °F 32.2 °F 30.09 in Calm   5.0 mph 76% 0.00 in meteobridge W/m2
00:39 39.0 °F 32.7 °F 30.09 in Calm   1.0 mph 78% 0.00 in meteobridge W/m2
00:44 39.0 °F 32.4 °F 30.09 in Calm   3.0 mph 77% 0.00 in meteobridge W/m2
00:49 38.8 °F 32.5 °F 30.09 in Calm     78% 0.00 in meteobridge W/m2
00:54 38.7 °F 33.1 °F 30.09 in Calm   3.0 mph 80% 0.00 in meteobridge W/m2
00:59 38.7 °F 33.6 °F 30.09 in Calm   2.0 mph 82% 0.00 in meteobridge W/m2
01:04 38.5 °F 33.1 °F 30.09 in Calm     81% 0.00 in meteobridge W/m2
01:09 38.5 °F 30.6 °F 30.10 in Calm   4.0 mph 73% 0.00 in meteobridge W/m2
01:14 38.5 °F 31.3 °F 30.10 in Calm   1.0 mph 75% 0.00 in meteobridge W/m2
01:19 38.1 °F 30.2 °F 30.10 in West 2.9 mph 4.0 mph 73% 0.00 in meteobridge W/m2
01:24 38.1 °F 31.3 °F 30.11 in Calm   3.0 mph 76% 0.00 in meteobridge W/m2
01:29 38.1 °F 30.9 °F 30.11 in NW 0.9 mph 1.0 mph 75% 0.00 in meteobridge W/m2
01:34 37.9 °F 30.0 °F 30.11 in Calm   4.0 mph 73% 0.00 in meteobridge W/m2
01:39 37.9 °F 28.4 °F 30.11 in NW 2.9 mph 6.0 mph 68% 0.00 in meteobridge W/m2
01:44 37.9 °F 28.0 °F 30.11 in WNW 2.9 mph 10.0 mph 67% 0.00 in meteobridge W/m2
01:49 38.1 °F 28.9 °F 30.11 in NW 0.9 mph 4.0 mph 69% 0.00 in meteobridge W/m2
01:54 37.9 °F 28.0 °F 30.12 in Calm   7.0 mph 67% 0.00 in meteobridge W/m2
01:59 37.8 °F 27.5 °F 30.12 in Calm   3.0 mph 66% 0.00 in meteobridge W/m2
02:04 37.6 °F 28.4 °F 30.12 in NNW 13.0 mph 13.0 mph 69% 0.00 in meteobridge W/m2
02:09 37.6 °F 28.0 °F 30.12 in Calm   3.0 mph 68% 0.00 in meteobridge W/m2
02:14 37.2 °F 27.3 °F 30.11 in Calm   5.0 mph 67% 0.00 in meteobridge W/m2
02:19 37.2 °F 27.3 °F 30.12 in Calm   4.0 mph 67% 0.00 in meteobridge W/m2
02:24 37.0 °F 27.5 °F 30.12 in Calm     68% 0.00 in meteobridge W/m2
02:29 36.9 °F 26.6 °F 30.12 in NW 2.0 mph 3.0 mph 66% 0.00 in meteobridge W/m2
02:34 36.9 °F 25.0 °F 30.12 in Calm   5.0 mph 62% 0.00 in meteobridge W/m2
02:39 36.9 °F 27.0 °F 30.12 in NW 2.0 mph 3.0 mph 67% 0.00 in meteobridge W/m2
02:44 36.7 °F 25.7 °F 30.13 in ENE 0.9 mph 1.0 mph 64% 0.00 in meteobridge W/m2
02:49 36.5 °F 25.2 °F 30.13 in Calm   2.0 mph 63% 0.00 in meteobridge W/m2
02:54 36.3 °F 26.1 °F 30.13 in Calm   2.0 mph 66% 0.00 in meteobridge W/m2
02:59 36.1 °F 25.5 °F 30.13 in Calm   2.0 mph 65% 0.00 in meteobridge W/m2
03:04 36.1 °F 26.6 °F 30.13 in Calm   2.0 mph 68% 0.00 in meteobridge W/m2
03:09 36.0 °F 25.3 °F 30.13 in Calm   2.0 mph 65% 0.00 in meteobridge W/m2
03:14 36.0 °F 26.8 °F 30.13 in Calm     69% 0.00 in meteobridge W/m2
03:19 35.8 °F 27.3 °F 30.13 in Calm     71% 0.00 in meteobridge W/m2
03:24 35.4 °F 25.9 °F 30.14 in Calm     68% 0.00 in meteobridge W/m2
03:29 35.4 °F 27.3 °F 30.14 in Calm   4.0 mph 72% 0.00 in meteobridge W/m2
03:34 35.2 °F 26.4 °F 30.14 in Calm     70% 0.00 in meteobridge W/m2
03:39 35.1 °F 24.4 °F 30.14 in Calm   5.0 mph 65% 0.00 in meteobridge W/m2
03:44 35.1 °F 25.2 °F 30.14 in Calm   1.0 mph 67% 0.00 in meteobridge W/m2
03:49 35.2 °F 25.3 °F 30.14 in WNW 4.0 mph 5.0 mph 67% 0.00 in meteobridge W/m2
03:54 35.2 °F 25.0 °F 30.14 in Calm   2.0 mph 66% 0.00 in meteobridge W/m2
03:59 35.2 °F 25.3 °F 30.14 in Calm   1.0 mph 67% 0.00 in meteobridge W/m2
04:04 35.2 °F 24.6 °F 30.15 in West 2.0 mph 5.0 mph 65% 0.00 in meteobridge W/m2
04:09 35.2 °F 25.3 °F 30.14 in Calm   4.0 mph 67% 0.00 in meteobridge W/m2
04:14 35.4 °F 24.8 °F 30.14 in Calm   2.0 mph 65% 0.00 in meteobridge W/m2
04:19 35.4 °F 26.6 °F 30.15 in Calm   3.0 mph 70% 0.00 in meteobridge W/m2
04:23 35.4 °F 25.5 °F 30.15 in Calm   2.0 mph 67% 0.00 in meteobridge W/m2
04:29 35.4 °F 25.5 °F 30.15 in Calm     67% 0.00 in meteobridge W/m2
04:34 35.2 °F 25.0 °F 30.15 in NW 2.0 mph 6.0 mph 66% 0.00 in meteobridge W/m2
04:39 35.2 °F 26.4 °F 30.15 in NW 6.0 mph 6.0 mph 70% 0.00 in meteobridge W/m2
04:44 35.2 °F 25.7 °F 30.15 in NW 2.0 mph 5.0 mph 68% 0.00 in meteobridge W/m2
04:49 35.2 °F 26.1 °F 30.15 in Calm     69% 0.00 in meteobridge W/m2
04:54 35.2 °F 27.1 °F 30.16 in WNW 0.9 mph 1.0 mph 72% 0.00 in meteobridge W/m2
04:59 35.1 °F 27.9 °F 30.15 in WNW 2.9 mph 3.0 mph 75% 0.00 in meteobridge W/m2
05:04 34.5 °F 28.0 °F 30.15 in Calm   1.0 mph 77% 0.00 in meteobridge W/m2
05:09 34.3 °F 28.2 °F 30.16 in Calm     78% 0.00 in meteobridge W/m2
05:14 34.0 °F 28.4 °F 30.16 in NW 2.9 mph 7.0 mph 80% 0.00 in meteobridge W/m2
05:19 34.0 °F 27.0 °F 30.16 in Calm   4.0 mph 75% 0.00 in meteobridge W/m2
05:24 34.0 °F 28.4 °F 30.16 in Calm   3.0 mph 80% 0.00 in meteobridge W/m2
05:29 33.8 °F 27.3 °F 30.16 in Calm   1.0 mph 77% 0.00 in meteobridge W/m2
05:34 33.6 °F 27.9 °F 30.16 in Calm     79% 0.00 in meteobridge W/m2
05:39 33.4 °F 28.2 °F 30.16 in NNW 0.9 mph 1.0 mph 81% 0.00 in meteobridge W/m2
05:44 33.4 °F 27.9 °F 30.16 in Calm     80% 0.00 in meteobridge W/m2
05:49 33.3 °F 28.4 °F 30.16 in NNE 2.9 mph 4.0 mph 82% 0.00 in meteobridge W/m2
05:54 33.1 °F 27.9 °F 30.16 in Calm     81% 0.00 in meteobridge W/m2
05:59 33.1 °F 27.5 °F 30.17 in Calm     80% 0.00 in meteobridge W/m2
06:04 32.9 °F 27.7 °F 30.17 in NW 2.0 mph 2.0 mph 81% 0.00 in meteobridge W/m2
06:09 32.9 °F 27.7 °F 30.17 in Calm   1.0 mph 81% 0.00 in meteobridge W/m2
06:14 33.1 °F 27.9 °F 30.17 in Calm   3.0 mph 81% 0.00 in meteobridge W/m2
06:19 33.1 °F 27.3 °F 30.17 in Calm     79% 0.00 in meteobridge W/m2
06:24 32.9 °F 26.8 °F 30.17 in Calm     78% 0.00 in meteobridge W/m2
06:29 32.9 °F 26.8 °F 30.18 in Calm     78% 0.00 in meteobridge W/m2
06:34 32.7 °F 26.2 °F 30.18 in Calm     77% 0.00 in meteobridge W/m2
06:39 32.5 °F 27.7 °F 30.18 in Calm     82% 0.00 in meteobridge W/m2
06:44 32.4 °F 27.5 °F 30.18 in Calm   3.0 mph 82% 0.00 in meteobridge W/m2
06:49 32.2 °F 26.8 °F 30.18 in Calm     80% 0.00 in meteobridge W/m2
06:54 32.0 °F 27.1 °F 30.18 in Calm   1.0 mph 82% 0.00 in meteobridge W/m2
06:59 31.8 °F 27.5 °F 30.18 in North 2.9 mph 3.0 mph 84% 0.00 in meteobridge W/m2
07:04 31.8 °F 26.6 °F 30.18 in Calm     81% 0.00 in meteobridge W/m2
07:09 31.8 °F 26.1 °F 30.18 in Calm   6.0 mph 79% 0.00 in meteobridge W/m2
07:14 31.6 °F 27.1 °F 30.19 in Calm     83% 0.00 in meteobridge W/m2
07:19 31.6 °F 25.0 °F 30.19 in Calm   3.0 mph 76% 0.00 in meteobridge W/m2
07:24 31.6 °F 26.4 °F 30.19 in Calm     81% 0.00 in meteobridge W/m2
07:29 31.6 °F 26.4 °F 30.19 in Calm   1.0 mph 81% 0.00 in meteobridge W/m2
07:34 31.6 °F 25.0 °F 30.19 in Calm   4.0 mph 76% 0.00 in meteobridge W/m2
07:39 31.5 °F 25.3 °F 30.19 in Calm   3.0 mph 78% 0.00 in meteobridge W/m2
07:44 31.6 °F 24.6 °F 30.19 in West 2.9 mph 5.0 mph 75% 0.00 in meteobridge W/m2
07:49 32.0 °F 24.3 °F 30.19 in Calm   2.0 mph 73% 0.00 in meteobridge W/m2
07:54 32.2 °F 24.8 °F 30.20 in NW 2.0 mph 2.0 mph 74% 0.00 in meteobridge W/m2
07:59 32.2 °F 26.8 °F 30.20 in Calm     80% 0.00 in meteobridge W/m2
08:04 31.8 °F 25.2 °F 30.20 in Calm   5.0 mph 76% 0.00 in meteobridge W/m2
08:09 32.2 °F 25.2 °F 30.21 in Calm     75% 0.00 in meteobridge W/m2
08:14 32.4 °F 25.9 °F 30.21 in Calm     77% 0.00 in meteobridge W/m2
08:19 32.5 °F 25.2 °F 30.21 in Calm   3.0 mph 74% 0.00 in meteobridge W/m2
08:24 32.9 °F 26.4 °F 30.21 in NW 2.0 mph 2.0 mph 77% 0.00 in meteobridge W/m2
08:29 33.1 °F 25.0 °F 30.22 in Calm     72% 0.00 in meteobridge W/m2
08:34 33.3 °F 24.8 °F 30.22 in Calm   4.0 mph 71% 0.00 in meteobridge W/m2
08:39 33.4 °F 27.7 °F 30.22 in WSW 2.0 mph 4.0 mph 79% 0.00 in meteobridge W/m2
08:44 34.0 °F 26.6 °F 30.22 in Calm     74% 0.00 in meteobridge W/m2
08:49 34.3 °F 24.4 °F 30.23 in Calm   6.0 mph 67% 0.00 in meteobridge W/m2
08:54 34.9 °F 24.6 °F 30.23 in NE 4.0 mph 4.0 mph 66% 0.00 in meteobridge W/m2
08:59 35.4 °F 24.8 °F 30.23 in Calm     65% 0.00 in meteobridge W/m2
09:04 35.8 °F 23.7 °F 30.23 in Calm   4.0 mph 61% 0.00 in meteobridge W/m2
09:09 36.1 °F 24.1 °F 30.23 in Calm   7.0 mph 61% 0.00 in meteobridge W/m2
09:14 36.7 °F 22.1 °F 30.23 in Calm   5.0 mph 55% 0.00 in meteobridge W/m2
09:19 37.0 °F 21.9 °F 30.24 in Calm   5.0 mph 54% 0.00 in meteobridge W/m2
09:24 37.4 °F 23.5 °F 30.24 in Calm   2.0 mph 57% 0.00 in meteobridge W/m2
09:29 37.8 °F 22.6 °F 30.23 in Calm   7.0 mph 54% 0.00 in meteobridge W/m2
09:34 38.1 °F 22.1 °F 30.23 in Calm   1.0 mph 52% 0.00 in meteobridge W/m2
09:39 38.3 °F 21.7 °F 30.24 in Calm   7.0 mph 51% 0.00 in meteobridge W/m2
09:44 38.8 °F 19.8 °F 30.24 in WSW 4.9 mph 10.0 mph 46% 0.00 in meteobridge W/m2
09:49 39.4 °F 19.8 °F 30.24 in WNW 0.9 mph 5.0 mph 45% 0.00 in meteobridge W/m2
09:54 39.7 °F 24.1 °F 30.24 in Calm   1.0 mph 53% 0.00 in meteobridge W/m2
09:59 40.3 °F 22.1 °F 30.24 in Calm     48% 0.00 in meteobridge W/m2
10:04 40.6 °F 19.9 °F 30.24 in Calm   2.0 mph 43% 0.00 in meteobridge W/m2
10:09 41.2 °F 20.3 °F 30.24 in Calm   2.0 mph 43% 0.00 in meteobridge W/m2
10:14 41.4 °F 19.4 °F 30.24 in Calm   4.0 mph 41% 0.00 in meteobridge W/m2
10:19 41.9 °F 19.4 °F 30.25 in Calm   4.0 mph 40% 0.00 in meteobridge W/m2
10:24 42.3 °F 20.8 °F 30.25 in Calm   2.0 mph 42% 0.00 in meteobridge W/m2
10:29 42.4 °F 19.2 °F 30.25 in Calm   1.0 mph 39% 0.00 in meteobridge W/m2
10:34 43.2 °F 18.0 °F 30.25 in Calm   6.0 mph 36% 0.00 in meteobridge W/m2
10:39 43.3 °F 18.9 °F 30.25 in Calm   3.0 mph 37% 0.00 in meteobridge W/m2
10:44 43.5 °F 18.3 °F 30.25 in Calm   3.0 mph 36% 0.00 in meteobridge W/m2
10:49 43.9 °F 16.0 °F 30.24 in Calm   7.0 mph 32% 0.00 in meteobridge W/m2
10:54 44.1 °F 19.4 °F 30.25 in NW 0.9 mph 6.0 mph 37% 0.00 in meteobridge W/m2
10:59 43.9 °F 16.7 °F 30.26 in Calm   4.0 mph 33% 0.00 in meteobridge W/m2
11:04 43.9 °F 16.0 °F 30.25 in NW 4.0 mph 4.0 mph 32% 0.00 in meteobridge W/m2
11:09 44.1 °F 19.4 °F 30.26 in Calm   1.0 mph 37% 0.00 in meteobridge W/m2
11:14 44.2 °F 17.6 °F 30.26 in NNW 2.0 mph 4.0 mph 34% 0.00 in meteobridge W/m2
11:19 44.4 °F 18.5 °F 30.25 in West 0.9 mph 12.0 mph 35% 0.00 in meteobridge W/m2
11:24 44.4 °F 14.2 °F 30.26 in Calm   7.0 mph 29% 0.00 in meteobridge W/m2
11:29 44.6 °F 17.2 °F 30.26 in Calm   3.0 mph 33% 0.00 in meteobridge W/m2
11:34 45.0 °F 14.5 °F 30.27 in West 4.0 mph 10.0 mph 29% 0.00 in meteobridge W/m2
11:39 45.1 °F 17.1 °F 30.26 in West 2.0 mph 7.0 mph 32% 0.00 in meteobridge W/m2
11:44 45.1 °F 19.0 °F 30.26 in WNW 2.9 mph 6.0 mph 35% 0.00 in meteobridge W/m2
11:49 45.1 °F 19.0 °F 30.26 in Calm   6.0 mph 35% 0.00 in meteobridge W/m2
11:54 45.1 °F 18.5 °F 30.26 in Calm   4.0 mph 34% 0.00 in meteobridge W/m2
11:59 45.1 °F 19.0 °F 30.25 in Calm   2.0 mph 35% 0.00 in meteobridge W/m2
12:04 45.3 °F 19.9 °F 30.24 in West 4.0 mph 6.0 mph 36% 0.00 in meteobridge W/m2
12:09 45.7 °F 18.9 °F 30.25 in Calm   6.0 mph 34% 0.00 in meteobridge W/m2
12:14 45.9 °F 16.2 °F 30.25 in Calm   6.0 mph 30% 0.00 in meteobridge W/m2
12:19 45.9 °F 17.6 °F 30.25 in West 0.9 mph 7.0 mph 32% 0.00 in meteobridge W/m2
12:24 46.0 °F 17.1 °F 30.24 in WNW 4.0 mph 6.0 mph 31% 0.00 in meteobridge W/m2
12:29 46.0 °F 22.5 °F 30.24 in Calm   3.0 mph 39% 0.00 in meteobridge W/m2
12:34 46.0 °F 19.2 °F 30.24 in SE 0.9 mph 8.0 mph 34% 0.00 in meteobridge W/m2
12:39 46.2 °F 18.0 °F 30.24 in Calm   8.0 mph 32% 0.00 in meteobridge W/m2
12:44 46.4 °F 18.1 °F 30.24 in WSW 2.9 mph 7.0 mph 32% 0.00 in meteobridge W/m2
12:49 46.6 °F 20.3 °F 30.24 in Calm   1.0 mph 35% 0.00 in meteobridge W/m2
12:54 46.9 °F 21.4 °F 30.24 in Calm   4.0 mph 36% 0.00 in meteobridge W/m2
12:59 46.9 °F 20.7 °F 30.23 in Calm   4.0 mph 35% 0.00 in meteobridge W/m2
13:04 46.9 °F 19.9 °F 30.23 in Calm   5.0 mph 34% 0.00 in meteobridge W/m2
13:09 47.1 °F 22.1 °F 30.22 in NNW 0.9 mph 1.0 mph 37% 0.00 in meteobridge W/m2
13:14 47.8 °F 20.8 °F 30.23 in NW 2.9 mph 5.0 mph 34% 0.00 in meteobridge W/m2
13:19 47.7 °F 22.1 °F 30.22 in Calm   4.0 mph 36% 0.00 in meteobridge W/m2
13:24 47.7 °F 21.4 °F 30.22 in SW 0.9 mph 4.0 mph 35% 0.00 in meteobridge W/m2
13:29 47.8 °F 20.8 °F 30.21 in NW 2.0 mph 6.0 mph 34% 0.00 in meteobridge W/m2
13:34 48.0 °F 19.6 °F 30.21 in NNW 0.9 mph 6.0 mph 32% 0.00 in meteobridge W/m2
13:39 48.2 °F 20.5 °F 30.21 in WNW 2.9 mph 8.0 mph 33% 0.00 in meteobridge W/m2
13:44 48.2 °F 21.7 °F 30.21 in Calm   4.0 mph 35% 0.00 in meteobridge W/m2
13:49 48.2 °F 19.8 °F 30.21 in Calm   2.0 mph 32% 0.00 in meteobridge W/m2
13:54 48.4 °F 18.3 °F 30.21 in Calm   7.0 mph 30% 0.00 in meteobridge W/m2
13:59 48.2 °F 19.8 °F 30.20 in WSW 4.0 mph 5.0 mph 32% 0.00 in meteobridge W/m2
14:04 48.4 °F 17.6 °F 30.20 in WNW 2.9 mph 5.0 mph 29% 0.00 in meteobridge W/m2
14:09 48.4 °F 17.6 °F 30.20 in West 0.9 mph 8.0 mph 29% 0.00 in meteobridge W/m2
14:14 48.4 °F 19.0 °F 30.20 in Calm   5.0 mph 31% 0.00 in meteobridge W/m2
14:19 48.6 °F 24.1 °F 30.20 in Calm   1.0 mph 38% 0.00 in meteobridge W/m2
14:24 48.7 °F 22.3 °F 30.19 in Calm   1.0 mph 35% 0.00 in meteobridge W/m2
14:29 48.9 °F 23.2 °F 30.19 in WNW 2.0 mph 2.0 mph 36% 0.00 in meteobridge W/m2
14:34 48.9 °F 22.5 °F 30.19 in Calm   3.0 mph 35% 0.00 in meteobridge W/m2
14:39 49.1 °F 21.9 °F 30.20 in NW 2.9 mph 4.0 mph 34% 0.00 in meteobridge W/m2
14:44 49.3 °F 23.5 °F 30.19 in Calm   1.0 mph 36% 0.00 in meteobridge W/m2
14:49 49.3 °F 23.5 °F 30.19 in Calm     36% 0.00 in meteobridge W/m2
14:54 49.5 °F 23.0 °F 30.19 in West 0.9 mph 7.0 mph 35% 0.00 in meteobridge W/m2
14:59 49.3 °F 19.9 °F 30.18 in Calm   2.0 mph 31% 0.00 in meteobridge W/m2
15:04 49.3 °F 19.9 °F 30.19 in West 4.0 mph 5.0 mph 31% 0.00 in meteobridge W/m2
15:09 49.3 °F 18.3 °F 30.19 in NW 4.0 mph 5.0 mph 29% 0.00 in meteobridge W/m2
15:14 49.3 °F 22.8 °F 30.19 in SSW 2.0 mph 4.0 mph 35% 0.00 in meteobridge W/m2
15:19 49.5 °F 22.3 °F 30.19 in Calm   2.0 mph 34% 0.00 in meteobridge W/m2
15:24 49.5 °F 20.1 °F 30.19 in WNW 0.9 mph 2.0 mph 31% 0.00 in meteobridge W/m2
15:29 49.5 °F 23.5 °F 30.20 in Calm     36% 0.00 in meteobridge W/m2
15:34 49.5 °F 22.3 °F 30.20 in Calm     34% 0.00 in meteobridge W/m2
15:39 49.5 °F 21.6 °F 30.20 in Calm   3.0 mph 33% 0.00 in meteobridge W/m2
15:44 49.5 °F 24.3 °F 30.20 in Calm   2.0 mph 37% 0.00 in meteobridge W/m2
15:49 49.5 °F 24.3 °F 30.20 in Calm     37% 0.00 in meteobridge W/m2
15:54 49.6 °F 23.2 °F 30.20 in NNW 0.9 mph 1.0 mph 35% 0.00 in meteobridge W/m2
15:59 49.5 °F 22.3 °F 30.20 in Calm   6.0 mph 34% 0.00 in meteobridge W/m2
16:04 49.5 °F 23.0 °F 30.20 in Calm   3.0 mph 35% 0.00 in meteobridge W/m2
16:09 49.5 °F 23.0 °F 30.20 in Calm     35% 0.00 in meteobridge W/m2
16:14 49.5 °F 21.6 °F 30.20 in Calm   4.0 mph 33% 0.00 in meteobridge W/m2
16:19 49.5 °F 22.3 °F 30.20 in WNW 4.0 mph 9.0 mph 34% 0.00 in meteobridge W/m2
16:24 49.5 °F 20.8 °F 30.20 in Calm   2.0 mph 32% 0.00 in meteobridge W/m2
16:29 49.3 °F 21.4 °F 30.20 in NNE 4.9 mph 7.0 mph 33% 0.00 in meteobridge W/m2
16:34 49.3 °F 23.5 °F 30.20 in NW 4.9 mph 7.0 mph 36% 0.00 in meteobridge W/m2
16:39 48.9 °F 21.7 °F 30.21 in Calm   2.0 mph 34% 0.00 in meteobridge W/m2
16:44 48.7 °F 23.0 °F 30.20 in Calm   5.0 mph 36% 0.00 in meteobridge W/m2
16:49 48.6 °F 20.8 °F 30.20 in SW 4.9 mph 7.0 mph 33% 0.00 in meteobridge W/m2
16:54 48.6 °F 20.8 °F 30.21 in Calm   4.0 mph 33% 0.00 in meteobridge W/m2
16:59 48.4 °F 22.6 °F 30.21 in Calm     36% 0.00 in meteobridge W/m2
17:04 48.4 °F 21.4 °F 30.20 in Calm   7.0 mph 34% 0.00 in meteobridge W/m2
17:09 48.2 °F 23.7 °F 30.21 in West 4.0 mph 5.0 mph 38% 0.00 in meteobridge W/m2
17:14 48.0 °F 23.0 °F 30.20 in Calm   4.0 mph 37% 0.00 in meteobridge W/m2
17:19 47.8 °F 25.9 °F 30.21 in Calm   2.0 mph 42% 0.00 in meteobridge W/m2
17:24 47.5 °F 25.0 °F 30.21 in West 4.9 mph 7.0 mph 41% 0.00 in meteobridge W/m2
17:29 47.5 °F 26.1 °F 30.21 in Calm   1.0 mph 43% 0.00 in meteobridge W/m2
17:34 47.1 °F 25.7 °F 30.21 in Calm   1.0 mph 43% 0.00 in meteobridge W/m2
17:39 46.9 °F 23.9 °F 30.21 in Calm     40% 0.00 in meteobridge W/m2
17:44 46.8 °F 22.5 °F 30.21 in Calm   3.0 mph 38% 0.00 in meteobridge W/m2
17:49 46.6 °F 26.4 °F 30.21 in Calm     45% 0.00 in meteobridge W/m2
17:54 46.2 °F 22.6 °F 30.21 in Calm   3.0 mph 39% 0.00 in meteobridge W/m2
17:59 46.0 °F 23.7 °F 30.21 in Calm   1.0 mph 41% 0.00 in meteobridge W/m2
18:04 46.0 °F 21.2 °F 30.21 in Calm   2.0 mph 37% 0.00 in meteobridge W/m2
18:09 45.9 °F 23.5 °F 30.21 in Calm     41% 0.00 in meteobridge W/m2
18:14 45.5 °F 21.9 °F 30.21 in Calm   1.0 mph 39% 0.00 in meteobridge W/m2
18:19 45.3 °F 24.1 °F 30.21 in Calm     43% 0.00 in meteobridge W/m2
18:24 45.0 °F 24.4 °F 30.21 in Calm     44% 0.00 in meteobridge W/m2
18:29 44.4 °F 23.9 °F 30.21 in Calm     44% 0.00 in meteobridge W/m2
18:34 44.1 °F 24.6 °F 30.22 in Calm     46% 0.00 in meteobridge W/m2
18:39 43.5 °F 24.1 °F 30.22 in Calm   1.0 mph 46% 0.00 in meteobridge W/m2
18:44 43.0 °F 27.0 °F 30.22 in Calm     53% 0.00 in meteobridge W/m2
18:49 42.3 °F 28.0 °F 30.22 in Calm     57% 0.00 in meteobridge W/m2
18:54 41.5 °F 27.0 °F 30.21 in Calm     56% 0.00 in meteobridge W/m2
18:59 41.2 °F 27.9 °F 30.21 in Calm     59% 0.00 in meteobridge W/m2
19:04 40.6 °F 26.6 °F 30.21 in Calm     57% 0.00 in meteobridge W/m2
19:09 40.3 °F 26.6 °F 30.22 in Calm     58% 0.00 in meteobridge W/m2
19:14 39.9 °F 25.9 °F 30.22 in Calm     57% 0.00 in meteobridge W/m2
19:19 39.6 °F 26.8 °F 30.22 in Calm     60% 0.00 in meteobridge W/m2
19:24 39.4 °F 27.1 °F 30.22 in Calm     61% 0.00 in meteobridge W/m2
19:29 38.8 °F 27.7 °F 30.22 in Calm     64% 0.00 in meteobridge W/m2
19:34 38.7 °F 27.9 °F 30.22 in Calm     65% 0.00 in meteobridge W/m2
19:39 38.1 °F 27.9 °F 30.22 in Calm     66% 0.00 in meteobridge W/m2
19:44 37.8 °F 27.9 °F 30.21 in Calm     67% 0.00 in meteobridge W/m2
19:49 37.6 °F 28.0 °F 30.22 in Calm     68% 0.00 in meteobridge W/m2
19:54 37.2 °F 27.3 °F 30.22 in Calm     67% 0.00 in meteobridge W/m2
19:59 37.0 °F 26.8 °F 30.21 in Calm     66% 0.00 in meteobridge W/m2
20:04 36.9 °F 27.3 °F 30.21 in Calm     68% 0.00 in meteobridge W/m2
20:09 36.7 °F 26.8 °F 30.21 in Calm     67% 0.00 in meteobridge W/m2
20:14 36.3 °F 26.8 °F 30.22 in Calm     68% 0.00 in meteobridge W/m2
20:19 36.1 °F 27.0 °F 30.22 in Calm     69% 0.00 in meteobridge W/m2
20:24 35.8 °F 26.6 °F 30.22 in Calm     69% 0.00 in meteobridge W/m2
20:29 35.2 °F 26.4 °F 30.22 in Calm     70% 0.00 in meteobridge W/m2
20:34 34.9 °F 26.8 °F 30.22 in Calm     72% 0.00 in meteobridge W/m2
20:39 34.7 °F 26.6 °F 30.22 in Calm     72% 0.00 in meteobridge W/m2
20:44 34.5 °F 26.4 °F 30.23 in Calm     72% 0.00 in meteobridge W/m2
20:49 34.3 °F 26.2 °F 30.23 in Calm     72% 0.00 in meteobridge W/m2
20:54 34.2 °F 26.4 °F 30.23 in Calm     73% 0.00 in meteobridge W/m2
20:59 34.0 °F 26.6 °F 30.24 in Calm     74% 0.00 in meteobridge W/m2
21:04 33.4 °F 26.4 °F 30.24 in Calm     75% 0.00 in meteobridge W/m2
21:09 33.3 °F 26.8 °F 30.24 in Calm     77% 0.00 in meteobridge W/m2
21:14 33.1 °F 26.6 °F 30.24 in Calm     77% 0.00 in meteobridge W/m2
21:19 32.7 °F 26.6 °F 30.24 in Calm     78% 0.00 in meteobridge W/m2
21:24 32.7 °F 27.0 °F 30.23 in Calm     79% 0.00 in meteobridge W/m2
21:29 32.5 °F 26.8 °F 30.23 in Calm     79% 0.00 in meteobridge W/m2
21:34 32.4 °F 26.6 °F 30.24 in Calm     79% 0.00 in meteobridge W/m2
21:39 32.0 °F 26.2 °F 30.24 in Calm     79% 0.00 in meteobridge W/m2
21:44 31.8 °F 26.4 °F 30.24 in Calm     80% 0.00 in meteobridge W/m2
21:49 31.6 °F 26.2 °F 30.24 in Calm     80% 0.00 in meteobridge W/m2
21:54 31.5 °F 26.2 °F 30.24 in Calm     81% 0.00 in meteobridge W/m2
21:59 31.3 °F 26.4 °F 30.24 in Calm     82% 0.00 in meteobridge W/m2
22:04 31.1 °F 26.2 °F 30.24 in Calm     82% 0.00 in meteobridge W/m2
22:09 30.9 °F 26.4 °F 30.24 in Calm     83% 0.00 in meteobridge W/m2
22:14 30.7 °F 26.2 °F 30.24 in Calm     83% 0.00 in meteobridge W/m2
22:19 30.7 °F 26.2 °F 30.24 in Calm     83% 0.00 in meteobridge W/m2
22:24 30.6 °F 26.2 °F 30.24 in Calm     84% 0.00 in meteobridge W/m2
22:29 30.6 °F 26.2 °F 30.24 in Calm     84% 0.00 in meteobridge W/m2
22:34 30.4 °F 26.1 °F 30.24 in Calm     84% 0.00 in meteobridge W/m2
22:39 30.4 °F 26.1 °F 30.24 in Calm     84% 0.00 in meteobridge W/m2
22:44 30.0 °F 26.1 °F 30.24 in Calm     85% 0.00 in meteobridge W/m2
22:49 30.0 °F 26.1 °F 30.24 in Calm     85% 0.00 in meteobridge W/m2
22:54 29.8 °F 25.9 °F 30.24 in Calm     85% 0.00 in meteobridge W/m2
22:59 29.8 °F 26.2 °F 30.24 in Calm     86% 0.00 in meteobridge W/m2
23:04 29.7 °F 26.1 °F 30.24 in Calm     86% 0.00 in meteobridge W/m2
23:09 29.7 °F 26.1 °F 30.24 in Calm     86% 0.00 in meteobridge W/m2
23:14 29.5 °F 25.9 °F 30.23 in Calm     86% 0.00 in meteobridge W/m2
23:19 29.5 °F 26.1 °F 30.23 in Calm     87% 0.00 in meteobridge W/m2
23:23 29.7 °F 26.2 °F 30.23 in Calm     87% 0.00 in meteobridge W/m2
23:29 29.7 °F 26.2 °F 30.23 in Calm     87% 0.00 in meteobridge W/m2
23:34 29.5 °F 25.9 °F 30.23 in Calm     86% 0.00 in meteobridge W/m2
23:39 29.7 °F 26.2 °F 30.23 in Calm     87% 0.00 in meteobridge W/m2
23:44 29.7 °F 26.2 °F 30.24 in Calm     87% 0.00 in meteobridge W/m2
23:49 29.5 °F 26.1 °F 30.24 in Calm     87% 0.00 in meteobridge W/m2
23:54 29.5 °F 26.1 °F 30.24 in Calm     87% 0.00 in meteobridge W/m2
23:59 29.5 °F 26.1 °F 30.24 in Calm     87% 0.00 in meteobridge W/m2
Juneau County Weather
Compliments of Weather Underground - 2.5 mb